createdAt,value
2022-07-25T00:01:00.337Z,99966.78
2022-07-25T00:05:02.953Z,99966.13
2022-07-25T00:09:05.107Z,99965.69
2022-07-25T00:13:06.856Z,99965.75
2022-07-25T00:17:08.676Z,99961.81
2022-07-25T00:21:10.508Z,99943.22
2022-07-25T00:25:12.321Z,99951.25
2022-07-25T00:29:14.051Z,99946.53
2022-07-25T00:33:15.885Z,99941.50
2022-07-25T00:37:17.658Z,99943.72
2022-07-25T00:41:19.459Z,99936.59
2022-07-25T00:45:23.583Z,99937.06
2022-07-25T00:49:25.426Z,99946.81
2022-07-25T00:53:27.190Z,99942.97
2022-07-25T00:57:29.029Z,99939.50
2022-07-25T01:01:30.868Z,99925.28
2022-07-25T01:05:32.758Z,99919.50
2022-07-25T01:09:34.506Z,99931.19
2022-07-25T01:13:36.268Z,99916.69
2022-07-25T01:17:38.016Z,99915.09
2022-07-25T01:21:40.474Z,99919.53
2022-07-25T01:25:42.329Z,99911.44
2022-07-25T01:29:44.094Z,99909.34
2022-07-25T01:33:46.040Z,99893.88
2022-07-25T01:37:47.811Z,99891.44
2022-07-25T01:41:49.564Z,99893.88
2022-07-25T01:45:51.572Z,99880.03
2022-07-25T01:49:53.333Z,99893.44
2022-07-25T01:53:55.120Z,99882.84
2022-07-25T01:57:56.888Z,99881.41
2022-07-25T02:01:59.770Z,99879.19
2022-07-25T02:06:06.957Z,99880.03
2022-07-25T02:10:09.283Z,99874.13
2022-07-25T02:14:11.063Z,99873.50
2022-07-25T02:18:12.851Z,99871.25
2022-07-25T02:22:14.618Z,99875.97
2022-07-25T02:26:16.371Z,99870.25
2022-07-25T02:30:18.172Z,99856.81
2022-07-25T02:34:20.602Z,99869.47
2022-07-25T02:38:22.329Z,99862.06
2022-07-25T02:42:24.140Z,99859.69
2022-07-25T02:46:26.157Z,99866.16
2022-07-25T02:50:28.152Z,99854.16
2022-07-25T02:54:30.075Z,99859.84
2022-07-25T02:58:31.818Z,99847.03
2022-07-25T03:02:40.531Z,99853.75
2022-07-25T03:06:48.501Z,99848.88
2022-07-25T03:10:56.510Z,99848.03
2022-07-25T03:15:12.507Z,99858.44
2022-07-25T03:19:14.447Z,99838.84
2022-07-25T03:23:19.578Z,99844.75
2022-07-25T03:27:21.389Z,99844.19
2022-07-25T03:31:23.194Z,99838.84
2022-07-25T03:35:26.143Z,99839.63
2022-07-25T03:39:28.565Z,99846.53
2022-07-25T03:43:31.283Z,99830.06
2022-07-25T03:47:33.084Z,99840.25
2022-07-25T03:51:34.879Z,99824.53
2022-07-25T03:55:36.822Z,99826.38
2022-07-25T03:59:38.980Z,99822.28
2022-07-25T04:03:40.713Z,99822.31
2022-07-25T04:07:42.720Z,99812.66
2022-07-25T04:11:44.567Z,99802.59
2022-07-25T04:15:46.563Z,99797.38
2022-07-25T04:19:48.423Z,99797.25
2022-07-25T04:23:50.868Z,99784.63
2022-07-25T04:27:53.096Z,99786.25
2022-07-25T04:31:55.109Z,99768.38
2022-07-25T04:35:57.006Z,99768.47
2022-07-25T04:39:58.818Z,99760.00
2022-07-25T04:44:00.556Z,99764.22
2022-07-25T04:48:04.367Z,99753.34
2022-07-25T04:52:06.234Z,99749.59
2022-07-25T04:56:08.360Z,99733.97
2022-07-25T05:00:11.168Z,99725.56
2022-07-25T05:04:14.357Z,99727.28
2022-07-25T05:08:16.113Z,99728.00
2022-07-25T05:12:18.068Z,99741.41
2022-07-25T05:16:19.981Z,99734.38
2022-07-25T05:20:22.019Z,99714.97
2022-07-25T05:24:23.812Z,99720.47
2022-07-25T05:28:25.852Z,99711.03
2022-07-25T05:32:27.901Z,99701.59
2022-07-25T05:36:29.676Z,99710.81
2022-07-25T05:40:31.522Z,99702.03
2022-07-25T05:44:33.452Z,99705.13
2022-07-25T05:48:35.340Z,99698.44
2022-07-25T05:52:37.253Z,99689.94
2022-07-25T05:56:39.059Z,99706.69
2022-07-25T06:00:40.942Z,99687.41
2022-07-25T06:04:42.694Z,99688.59
2022-07-25T06:08:44.624Z,99686.19
2022-07-25T06:12:47.237Z,99684.41
2022-07-25T06:16:49.342Z,99681.16
2022-07-25T06:20:51.245Z,99666.03
2022-07-25T06:24:53.098Z,99668.34
2022-07-25T06:28:54.956Z,99667.88
2022-07-25T06:32:57.973Z,99656.19
2022-07-25T06:36:59.796Z,99658.88
2022-07-25T06:41:01.574Z,99657.75
2022-07-25T06:45:05.396Z,99642.72
2022-07-25T06:49:07.397Z,99642.59
2022-07-25T06:53:11.256Z,99636.84
2022-07-25T06:57:14.424Z,99631.84
2022-07-25T07:01:16.412Z,99623.44
2022-07-25T07:05:18.598Z,99624.97
2022-07-25T07:09:20.383Z,99615.16
2022-07-25T07:13:24.648Z,99610.44
2022-07-25T07:17:26.493Z,99618.75
2022-07-25T07:21:28.416Z,99610.06
2022-07-25T07:25:31.299Z,99612.06
2022-07-25T07:29:33.174Z,99602.03
2022-07-25T07:33:35.302Z,99600.28
2022-07-25T07:37:42.993Z,99594.06
2022-07-25T07:41:45.371Z,99597.00
2022-07-25T07:45:47.357Z,99586.69
2022-07-25T07:49:50.458Z,99576.75
2022-07-25T07:54:10.825Z,99573.41
2022-07-25T07:58:17.024Z,99578.28
2022-07-25T08:02:19.405Z,99568.56
2022-07-25T08:06:21.329Z,99577.69
2022-07-25T08:10:25.329Z,99569.13
2022-07-25T08:14:27.203Z,99564.41
2022-07-25T08:18:35.172Z,99558.53
2022-07-25T08:22:47.747Z,99566.09
2022-07-25T08:26:49.524Z,99564.78
2022-07-25T08:30:51.607Z,99562.06
2022-07-25T08:34:53.481Z,99566.41
2022-07-25T08:38:55.281Z,99549.13
2022-07-25T08:42:58.464Z,99546.47
2022-07-25T08:47:00.334Z,99552.03
2022-07-25T08:51:02.118Z,99547.16
2022-07-25T08:55:13.598Z,99542.72
2022-07-25T08:59:15.459Z,99531.63
2022-07-25T09:03:17.413Z,99525.44
2022-07-25T09:07:34.667Z,99529.69
2022-07-25T09:11:40.928Z,99520.34
2022-07-25T09:15:54.004Z,99524.38
2022-07-25T09:19:57.272Z,99519.97
2022-07-25T09:24:16.449Z,99518.31
2022-07-25T09:28:19.462Z,99514.34
2022-07-25T09:32:22.732Z,99508.78
2022-07-25T09:36:24.521Z,99511.31
2022-07-25T09:40:26.354Z,99510.16
2022-07-25T09:44:30.482Z,99508.44
2022-07-25T09:48:33.012Z,99487.22
2022-07-25T09:52:35.470Z,99487.84
2022-07-25T09:56:37.361Z,99495.56
2022-07-25T10:00:40.697Z,99498.25
2022-07-25T10:05:12.180Z,99486.91
2022-07-25T10:09:14.373Z,99480.84
2022-07-25T10:13:18.121Z,99477.00
2022-07-25T10:17:22.947Z,99466.78
2022-07-25T10:21:38.166Z,99469.75
2022-07-25T10:25:40.079Z,99462.56
2022-07-25T10:29:42.291Z,99460.50
2022-07-25T10:33:44.185Z,99463.00
2022-07-25T10:37:49.088Z,99448.22
2022-07-25T10:42:00.439Z,99460.31
2022-07-25T10:46:02.272Z,99441.50
2022-07-25T10:50:21.913Z,99440.06
2022-07-25T10:54:26.441Z,99416.22
2022-07-25T10:58:28.253Z,99425.84
2022-07-25T11:02:30.242Z,99425.34
2022-07-25T11:06:36.813Z,99400.56
2022-07-25T11:10:38.616Z,99412.75
2022-07-25T11:14:42.834Z,99394.56
2022-07-25T11:18:44.802Z,99410.16
2022-07-25T11:22:54.704Z,99389.56
2022-07-25T11:26:56.883Z,99389.66
2022-07-25T11:31:04.810Z,99389.00
2022-07-25T11:35:06.950Z,99392.69
2022-07-25T11:39:09.256Z,99365.41
2022-07-25T11:43:23.261Z,99372.09
2022-07-25T11:47:33.011Z,99358.91
2022-07-25T11:51:38.799Z,99355.66
2022-07-25T11:55:42.314Z,99345.00
2022-07-25T11:59:45.337Z,99331.28
2022-07-25T12:03:47.219Z,99338.25
2022-07-25T12:07:53.269Z,99340.13
2022-07-25T12:12:03.483Z,99326.22
2022-07-25T12:16:05.830Z,99324.66
2022-07-25T12:20:19.096Z,99317.13
2022-07-25T12:24:20.928Z,99319.38
2022-07-25T12:28:22.729Z,99308.38
2022-07-25T12:32:24.602Z,99309.13
2022-07-25T12:36:26.468Z,99318.56
2022-07-25T12:40:28.494Z,99287.44
2022-07-25T12:44:30.431Z,99296.22
2022-07-25T12:48:32.596Z,99300.56
2022-07-25T12:52:34.737Z,99300.25
2022-07-25T12:56:36.562Z,99291.63
2022-07-25T13:00:38.565Z,99277.56
2022-07-25T13:04:40.524Z,99271.81
2022-07-25T13:08:42.402Z,99271.66
2022-07-25T13:12:44.592Z,99251.53
2022-07-25T13:16:47.153Z,99257.25
2022-07-25T13:20:49.555Z,99244.63
2022-07-25T13:24:52.022Z,99234.09
2022-07-25T13:28:59.429Z,99231.06
2022-07-25T13:33:01.804Z,99230.09
2022-07-25T13:37:04.635Z,99222.31
2022-07-25T13:41:06.993Z,99211.94
2022-07-25T13:45:09.981Z,99198.63
2022-07-25T13:49:12.248Z,99205.81
2022-07-25T13:53:14.350Z,99201.66
2022-07-25T13:57:16.219Z,99187.91
2022-07-25T14:01:18.149Z,99192.06
2022-07-25T14:05:20.058Z,99168.56
2022-07-25T14:09:22.082Z,99185.28
2022-07-25T14:13:23.962Z,99176.44
2022-07-25T14:17:29.817Z,99175.06
2022-07-25T14:21:32.235Z,99164.50
2022-07-25T14:25:34.580Z,99159.72
2022-07-25T14:29:38.068Z,99147.72
2022-07-25T14:33:40.600Z,99143.41
2022-07-25T14:37:42.585Z,99139.34
2022-07-25T14:41:46.089Z,99126.50
2022-07-25T14:45:48.022Z,99132.75
2022-07-25T14:49:49.896Z,99136.66
2022-07-25T14:53:53.435Z,99132.91
2022-07-25T14:57:55.366Z,99108.59
2022-07-25T15:01:57.200Z,99113.81
2022-07-25T15:05:58.988Z,99099.88
2022-07-25T15:10:00.835Z,99092.59
2022-07-25T15:14:02.638Z,99079.66
2022-07-25T15:18:04.614Z,99075.91
2022-07-25T15:22:06.454Z,99076.97
2022-07-25T15:26:08.425Z,99068.88
2022-07-25T15:30:10.952Z,99067.34
2022-07-25T15:34:12.784Z,99070.34
2022-07-25T15:38:15.890Z,99056.91
2022-07-25T15:42:17.802Z,99057.94
2022-07-25T15:46:19.606Z,99060.41
2022-07-25T15:50:22.036Z,99052.13
2022-07-25T15:54:27.710Z,99047.00
2022-07-25T15:58:31.625Z,99035.56
2022-07-25T16:02:33.424Z,99045.34
2022-07-25T16:06:35.361Z,99019.81
2022-07-25T16:10:37.302Z,99023.16
2022-07-25T16:14:39.147Z,99006.56
2022-07-25T16:18:40.936Z,99013.63
2022-07-25T16:22:42.882Z,99006.44
2022-07-25T16:26:45.026Z,98997.34
2022-07-25T16:30:47.019Z,99001.53
2022-07-25T16:34:49.479Z,98996.22
2022-07-25T16:38:53.428Z,98986.31
2022-07-25T16:42:58.716Z,98962.03
2022-07-25T16:47:00.597Z,98971.22
2022-07-25T16:51:02.639Z,98961.09
2022-07-25T16:55:05.457Z,98961.41
2022-07-25T16:59:08.261Z,98934.63
2022-07-25T17:03:10.302Z,98933.75
2022-07-25T17:07:12.408Z,98932.81
2022-07-25T17:11:14.378Z,98930.59
2022-07-25T17:15:23.736Z,98929.47
2022-07-25T17:19:30.653Z,98940.53
2022-07-25T17:23:33.390Z,98930.66
2022-07-25T17:27:43.127Z,98936.22
2022-07-25T17:31:47.982Z,98935.25
2022-07-25T17:35:51.821Z,98927.44
2022-07-25T17:39:56.344Z,98935.63
2022-07-25T17:43:58.821Z,98930.72
2022-07-25T17:48:03.071Z,98949.53
2022-07-25T17:52:05.705Z,98941.03
2022-07-25T17:56:08.776Z,98933.88
2022-07-25T18:00:15.165Z,98944.53
2022-07-25T18:04:20.959Z,98951.84
2022-07-25T18:08:25.944Z,99055.66
2022-07-25T18:12:31.282Z,99070.25
2022-07-25T18:16:33.578Z,99093.66
2022-07-25T18:20:35.549Z,99095.19
2022-07-25T18:24:38.774Z,99102.47
2022-07-25T18:28:40.723Z,99096.28
2022-07-25T18:32:43.040Z,99097.50
2022-07-25T18:36:44.982Z,99097.25
2022-07-25T18:40:46.769Z,99082.97
2022-07-25T18:44:48.936Z,99107.22
2022-07-25T18:48:51.473Z,99127.78
2022-07-25T18:52:56.743Z,99125.63
2022-07-25T18:56:58.724Z,99133.34
2022-07-25T19:01:10.310Z,99137.19
2022-07-25T19:05:12.377Z,99140.81
2022-07-25T19:09:16.627Z,99156.81
2022-07-25T19:13:46.577Z,99153.66
2022-07-25T19:17:43.104Z,99142.38
2022-07-25T19:21:47.986Z,99152.47
2022-07-25T19:25:55.353Z,99158.28
2022-07-25T19:29:57.347Z,99141.00
2022-07-25T19:33:59.214Z,99144.47
2022-07-25T19:38:01.180Z,99143.91
2022-07-25T19:42:07.454Z,99137.75
2022-07-25T19:46:09.359Z,99145.22
2022-07-25T19:50:11.412Z,99174.03
2022-07-25T19:54:13.430Z,99177.28
2022-07-25T19:58:15.849Z,99190.03
2022-07-25T20:02:17.814Z,99179.50
2022-07-25T20:06:39.673Z,99176.34
2022-07-25T20:10:41.440Z,99185.44
2022-07-25T20:14:43.509Z,99195.63
2022-07-25T20:18:45.401Z,99159.78
2022-07-25T20:22:48.071Z,99118.53
2022-07-25T20:26:52.935Z,99121.63
2022-07-25T20:30:56.029Z,99154.34
2022-07-25T20:34:57.921Z,99157.34
2022-07-25T20:38:59.785Z,99170.44
2022-07-25T20:43:04.048Z,99173.16
2022-07-25T20:47:06.004Z,99162.16
2022-07-25T20:51:07.863Z,99175.31
2022-07-25T20:55:09.881Z,99169.16
2022-07-25T20:59:11.976Z,99164.31
2022-07-25T21:03:13.844Z,99163.00
2022-07-25T21:07:16.883Z,99165.91
2022-07-25T21:11:18.825Z,99152.50
2022-07-25T21:15:20.651Z,99150.88
2022-07-25T21:19:22.419Z,99165.31
2022-07-25T21:23:26.473Z,99163.16
2022-07-25T21:27:28.310Z,99173.31
2022-07-25T21:31:30.151Z,99175.47
2022-07-25T21:35:31.946Z,99177.66
2022-07-25T21:39:51.148Z,99188.91
2022-07-25T21:43:52.997Z,99181.38
2022-07-25T21:47:54.854Z,99165.81
2022-07-25T21:51:56.774Z,99175.72
2022-07-25T21:55:59.995Z,99188.16
2022-07-25T22:00:01.766Z,99199.13
2022-07-25T22:04:04.193Z,99206.97
2022-07-25T22:08:06.160Z,99197.72
2022-07-25T22:12:08.511Z,99187.03
2022-07-25T22:16:10.438Z,99196.69
2022-07-25T22:20:12.719Z,99200.25
2022-07-25T22:24:14.448Z,99200.88
2022-07-25T22:28:16.329Z,99211.31
2022-07-25T22:32:18.076Z,99253.47
2022-07-25T22:36:19.858Z,99261.00
2022-07-25T22:40:21.704Z,99254.00
2022-07-25T22:44:23.571Z,99260.41
2022-07-25T22:48:25.324Z,99259.00
2022-07-25T22:52:29.412Z,99275.47
2022-07-25T22:56:31.329Z,99276.59
2022-07-25T23:00:33.100Z,99270.34
2022-07-25T23:04:35.060Z,99290.59
2022-07-25T23:08:36.916Z,99285.69
2022-07-25T23:12:38.948Z,99312.78
2022-07-25T23:16:40.829Z,99308.41
2022-07-25T23:20:42.761Z,99347.38
2022-07-25T23:24:44.688Z,99365.50
2022-07-25T23:28:46.463Z,99375.38
2022-07-25T23:32:48.303Z,99385.75
2022-07-25T23:36:50.099Z,99406.19
2022-07-25T23:40:54.092Z,99429.63
2022-07-25T23:44:55.875Z,99428.91
2022-07-25T23:48:58.851Z,99432.84
2022-07-25T23:53:00.762Z,99424.25
2022-07-25T23:57:02.639Z,99446.22
